createdAt,value
2018-10-18T00:00:31.528Z,12.90
2018-10-18T00:03:01.617Z,12.53
2018-10-18T00:05:32.382Z,12.13
2018-10-18T00:08:02.673Z,12.90
2018-10-18T00:10:32.957Z,12.80
2018-10-18T00:13:03.153Z,12.27
2018-10-18T00:15:33.136Z,13.07
2018-10-18T00:18:04.060Z,13.37
2018-10-18T00:20:34.024Z,12.50
2018-10-18T00:23:04.187Z,13.00
2018-10-18T00:25:34.212Z,12.43
2018-10-18T00:28:04.314Z,12.70
2018-10-18T00:30:34.328Z,13.10
2018-10-18T00:33:04.518Z,13.60
2018-10-18T00:35:34.532Z,14.63
2018-10-18T00:38:04.852Z,13.70
2018-10-18T00:40:34.667Z,13.10
2018-10-18T00:43:04.823Z,11.93
2018-10-18T00:45:34.807Z,12.33
2018-10-18T00:48:04.988Z,12.53
2018-10-18T00:50:34.943Z,11.50
2018-10-18T00:53:05.270Z,11.83
2018-10-18T00:55:35.216Z,12.47
2018-10-18T00:58:05.653Z,12.40
2018-10-18T01:00:35.641Z,12.80
2018-10-18T01:03:05.969Z,12.03
2018-10-18T01:05:35.992Z,12.63
2018-10-18T01:08:06.322Z,12.90
2018-10-18T01:10:36.268Z,12.90
2018-10-18T01:13:06.627Z,13.37
2018-10-18T01:15:36.681Z,13.43
2018-10-18T01:18:07.585Z,13.37
2018-10-18T01:20:37.484Z,12.20
2018-10-18T01:23:08.138Z,13.60
2018-10-18T01:25:38.167Z,14.20
2018-10-18T01:28:08.499Z,13.87
2018-10-18T01:30:38.539Z,12.73
2018-10-18T01:33:08.577Z,14.30
2018-10-18T01:35:38.546Z,13.20
2018-10-18T01:38:08.618Z,13.67
2018-10-18T01:40:38.532Z,13.43
2018-10-18T01:43:08.546Z,13.87
2018-10-18T01:45:38.500Z,13.00
2018-10-18T01:48:09.377Z,13.63
2018-10-18T01:50:39.286Z,14.07
2018-10-18T01:53:09.684Z,13.90
2018-10-18T01:55:39.780Z,13.53
2018-10-18T01:58:09.799Z,13.80
2018-10-18T02:00:39.817Z,13.47
2018-10-18T02:03:09.799Z,13.40
2018-10-18T02:05:39.778Z,14.17
2018-10-18T02:08:09.757Z,12.67
2018-10-18T02:10:39.665Z,13.17
2018-10-18T02:13:09.624Z,13.30
2018-10-18T02:15:39.659Z,14.47
2018-10-18T02:18:09.778Z,12.73
2018-10-18T02:20:39.612Z,13.90
2018-10-18T02:23:09.585Z,14.63
2018-10-18T02:25:39.500Z,14.93
2018-10-18T02:28:09.454Z,14.40
2018-10-18T02:30:39.421Z,14.97
2018-10-18T02:33:09.344Z,15.00
2018-10-18T02:35:39.307Z,14.47
2018-10-18T02:38:09.509Z,15.17
2018-10-18T02:40:39.484Z,14.43
2018-10-18T02:43:09.514Z,15.53
2018-10-18T02:45:39.393Z,15.50
2018-10-18T02:48:09.475Z,14.00
2018-10-18T02:50:39.432Z,14.27
2018-10-18T02:53:09.449Z,14.80
2018-10-18T02:55:39.337Z,16.10
2018-10-18T02:58:09.314Z,14.23
2018-10-18T03:00:39.253Z,14.30
2018-10-18T03:03:09.339Z,14.17
2018-10-18T03:05:39.376Z,13.93
2018-10-18T03:08:09.249Z,15.73
2018-10-18T03:10:39.269Z,13.87
2018-10-18T03:13:09.269Z,14.57
2018-10-18T03:15:39.337Z,14.83
2018-10-18T03:18:09.299Z,15.00
2018-10-18T03:20:39.303Z,14.13
2018-10-18T03:23:09.266Z,14.33
2018-10-18T03:25:39.265Z,13.33
2018-10-18T03:28:09.216Z,13.60
2018-10-18T03:30:39.166Z,16.05
2018-10-18T03:33:09.150Z,13.27
2018-10-18T03:35:39.164Z,13.37
2018-10-18T03:38:09.102Z,13.63
2018-10-18T03:40:39.174Z,15.07
2018-10-18T03:43:09.076Z,13.60
2018-10-18T03:45:39.066Z,14.33
2018-10-18T03:48:09.031Z,15.13
2018-10-18T03:50:38.970Z,15.87
2018-10-18T03:53:08.975Z,15.57
2018-10-18T03:55:38.992Z,17.70
2018-10-18T03:58:08.954Z,16.60
2018-10-18T04:00:38.973Z,17.00
2018-10-18T04:03:08.989Z,16.97
2018-10-18T04:05:39.020Z,16.00
2018-10-18T04:08:09.028Z,17.17
2018-10-18T04:10:38.992Z,17.83
2018-10-18T04:13:09.003Z,17.40
2018-10-18T04:15:39.005Z,19.77
2018-10-18T04:18:09.093Z,18.57
2018-10-18T04:20:39.013Z,20.93
2018-10-18T04:23:08.995Z,19.40
2018-10-18T04:25:39.130Z,18.07
2018-10-18T04:28:09.072Z,19.57
2018-10-18T04:30:39.148Z,18.80
2018-10-18T04:33:09.168Z,20.13
2018-10-18T04:35:39.297Z,18.27
2018-10-18T04:38:09.316Z,19.00
2018-10-18T04:40:39.332Z,19.47
2018-10-18T04:43:09.383Z,19.57
2018-10-18T04:45:39.731Z,19.60
2018-10-18T04:48:09.781Z,18.63
2018-10-18T04:50:39.775Z,19.43
2018-10-18T04:53:09.832Z,18.33
2018-10-18T04:55:39.801Z,19.80
2018-10-18T04:58:09.776Z,18.97
2018-10-18T05:00:39.753Z,19.47
2018-10-18T05:03:09.742Z,19.53
2018-10-18T05:05:48.778Z,20.30
2018-10-18T05:08:19.088Z,19.23
2018-10-18T05:10:49.297Z,19.17
2018-10-18T05:13:19.546Z,19.77
2018-10-18T05:15:49.554Z,21.13
2018-10-18T05:18:20.207Z,19.87
2018-10-18T05:20:50.176Z,20.07
2018-10-18T05:23:20.140Z,20.50
2018-10-18T05:25:50.830Z,20.43
2018-10-18T05:28:21.031Z,20.47
2018-10-18T05:30:51.048Z,21.53
2018-10-18T05:33:21.033Z,19.63
2018-10-18T05:35:50.937Z,20.37
2018-10-18T05:38:21.000Z,21.20
2018-10-18T05:40:50.972Z,20.00
2018-10-18T05:43:23.192Z,21.67
2018-10-18T05:45:54.284Z,20.80
2018-10-18T05:48:24.442Z,21.30
2018-10-18T05:50:54.447Z,22.90
2018-10-18T05:53:24.572Z,22.10
2018-10-18T05:55:55.593Z,22.37
2018-10-18T05:58:25.652Z,24.53
2018-10-18T06:00:55.815Z,23.67
2018-10-18T06:03:25.776Z,22.13
2018-10-18T06:05:55.806Z,23.63
2018-10-18T06:08:25.849Z,23.87
2018-10-18T06:11:07.038Z,23.00
2018-10-18T06:13:37.137Z,22.37
2018-10-18T06:16:07.216Z,22.70
2018-10-18T06:18:37.332Z,20.83
2018-10-18T06:21:07.402Z,19.67
2018-10-18T06:23:37.451Z,19.57
2018-10-18T06:26:07.595Z,19.57
2018-10-18T06:28:37.627Z,19.53
2018-10-18T06:31:07.730Z,18.40
2018-10-18T06:33:37.727Z,18.37
2018-10-18T06:36:07.765Z,18.97
2018-10-18T06:38:37.770Z,18.03
2018-10-18T06:41:08.090Z,18.83
2018-10-18T06:43:40.082Z,19.97
2018-10-18T06:46:11.708Z,18.87
2018-10-18T06:48:43.309Z,18.37
2018-10-18T06:51:13.223Z,17.93
2018-10-18T06:53:43.317Z,19.17
2018-10-18T06:56:13.326Z,18.87
2018-10-18T06:58:43.405Z,19.53
2018-10-18T07:01:13.449Z,20.20
2018-10-18T07:03:43.493Z,19.53
2018-10-18T07:06:13.716Z,22.17
2018-10-18T07:08:43.799Z,21.47
2018-10-18T07:11:13.909Z,22.77
2018-10-18T07:13:44.019Z,22.13
2018-10-18T07:16:14.049Z,22.53
2018-10-18T07:18:44.047Z,22.47
2018-10-18T07:21:14.095Z,21.57
2018-10-18T07:23:44.080Z,24.27
2018-10-18T07:26:14.099Z,20.13
2018-10-18T07:28:44.114Z,22.73
2018-10-18T07:31:14.164Z,22.33
2018-10-18T07:33:44.234Z,23.97
2018-10-18T07:36:14.379Z,23.73
2018-10-18T07:38:44.259Z,21.73
2018-10-18T07:41:14.372Z,24.50
2018-10-18T07:43:44.352Z,24.50
2018-10-18T07:46:14.400Z,23.57
2018-10-18T07:48:44.523Z,24.50
2018-10-18T07:51:14.761Z,25.70
2018-10-18T07:53:44.865Z,25.40
2018-10-18T07:56:14.895Z,26.13
2018-10-18T07:58:44.912Z,24.17
2018-10-18T08:01:15.029Z,23.30
2018-10-18T08:03:45.365Z,23.30
2018-10-18T08:06:15.564Z,25.27
2018-10-18T08:08:45.745Z,24.53
2018-10-18T08:11:15.929Z,24.30
2018-10-18T08:13:46.195Z,24.03
2018-10-18T08:16:16.390Z,25.33
2018-10-18T08:18:46.460Z,23.83
2018-10-18T08:21:16.597Z,25.37
2018-10-18T08:23:46.856Z,24.77
2018-10-18T08:26:17.101Z,25.30
2018-10-18T08:28:47.305Z,26.70
2018-10-18T08:31:17.661Z,25.90
2018-10-18T08:33:48.114Z,26.63
2018-10-18T08:36:18.290Z,27.07
2018-10-18T08:38:48.776Z,28.70
2018-10-18T08:41:18.592Z,27.80
2018-10-18T08:43:48.759Z,28.37
2018-10-18T08:46:19.017Z,27.33
2018-10-18T08:48:49.121Z,28.83
2018-10-18T08:51:19.865Z,27.73
2018-10-18T08:53:49.829Z,28.03
2018-10-18T08:56:20.031Z,27.83
2018-10-18T08:58:50.050Z,28.17
2018-10-18T09:01:20.170Z,27.63
2018-10-18T09:03:50.635Z,27.23
2018-10-18T09:06:20.949Z,27.60
2018-10-18T09:08:50.943Z,28.47
2018-10-18T09:11:21.011Z,26.63
2018-10-18T09:13:51.025Z,27.40
2018-10-18T09:16:21.175Z,26.27
2018-10-18T09:18:51.204Z,25.87
2018-10-18T09:21:21.303Z,24.43
2018-10-18T09:23:51.388Z,24.93
2018-10-18T09:26:21.332Z,23.73
2018-10-18T09:28:51.366Z,22.70
2018-10-18T09:31:21.402Z,25.03
2018-10-18T09:33:51.626Z,23.57
2018-10-18T09:36:21.760Z,22.60
2018-10-18T09:38:51.774Z,21.93
2018-10-18T09:41:22.393Z,22.40
2018-10-18T09:44:07.885Z,23.10
2018-10-18T09:46:38.564Z,22.93
2018-10-18T09:49:08.845Z,24.43
2018-10-18T09:51:39.072Z,22.43
2018-10-18T09:54:09.221Z,22.47
2018-10-18T09:56:39.515Z,22.77
2018-10-18T09:59:09.598Z,22.47
2018-10-18T10:01:44.940Z,21.67
2018-10-18T10:04:15.037Z,20.33
2018-10-18T10:06:45.148Z,21.53
2018-10-18T10:09:15.824Z,24.23
2018-10-18T10:11:46.297Z,21.80
2018-10-18T10:14:16.217Z,23.60
2018-10-18T10:16:46.397Z,23.17
2018-10-18T10:19:16.451Z,23.27
2018-10-18T10:21:46.750Z,22.93
2018-10-18T10:24:16.709Z,21.20
2018-10-18T10:26:46.780Z,21.20
2018-10-18T10:29:16.869Z,22.73
2018-10-18T10:31:47.153Z,21.90
2018-10-18T10:34:17.159Z,21.23
2018-10-18T10:36:47.177Z,21.10
2018-10-18T10:39:17.365Z,20.93
2018-10-18T10:41:47.354Z,21.33
2018-10-18T10:44:17.442Z,20.87
2018-10-18T10:46:47.541Z,19.90
2018-10-18T10:49:17.640Z,20.13
2018-10-18T10:51:47.581Z,21.70
2018-10-18T10:54:17.708Z,21.67
2018-10-18T10:56:47.683Z,22.17
2018-10-18T10:59:18.694Z,20.43
2018-10-18T11:01:48.752Z,21.13
2018-10-18T11:04:18.824Z,21.40
2018-10-18T11:06:48.857Z,20.77
2018-10-18T11:09:18.928Z,19.93
2018-10-18T11:11:49.051Z,19.97
2018-10-18T11:14:19.206Z,20.10
2018-10-18T11:16:49.195Z,21.33
2018-10-18T11:19:19.214Z,20.03
2018-10-18T11:21:49.241Z,20.03
2018-10-18T11:24:19.354Z,24.33
2018-10-18T11:26:49.258Z,21.60
2018-10-18T11:29:19.297Z,19.57
2018-10-18T11:31:49.235Z,20.33
2018-10-18T11:34:19.333Z,19.00
2018-10-18T11:36:50.326Z,20.87
2018-10-18T11:39:20.496Z,19.17
2018-10-18T11:41:50.500Z,19.97
2018-10-18T11:44:24.692Z,21.60
2018-10-18T11:46:54.717Z,19.93
2018-10-18T11:49:24.800Z,18.73
2018-10-18T11:51:54.942Z,19.37
2018-10-18T11:54:24.965Z,19.47
2018-10-18T11:56:55.089Z,19.30
2018-10-18T11:59:25.140Z,18.50
2018-10-18T12:01:55.093Z,19.27
2018-10-18T12:04:25.098Z,18.30
2018-10-18T12:06:55.076Z,18.83
2018-10-18T12:09:25.114Z,18.47
2018-10-18T12:11:55.120Z,17.87
2018-10-18T12:14:25.118Z,17.30
2018-10-18T12:16:55.228Z,18.03
2018-10-18T12:19:25.285Z,18.87
2018-10-18T12:21:55.360Z,17.57
2018-10-18T12:24:25.503Z,17.10
2018-10-18T12:26:55.615Z,15.77
2018-10-18T12:29:25.750Z,16.07
2018-10-18T12:31:55.909Z,16.47
2018-10-18T12:34:25.846Z,16.00
2018-10-18T12:36:56.906Z,15.67
2018-10-18T12:39:26.955Z,17.53
2018-10-18T12:41:57.109Z,16.23
2018-10-18T12:44:31.276Z,16.73
2018-10-18T12:47:01.301Z,15.73
2018-10-18T12:49:31.409Z,14.37
2018-10-18T12:52:01.414Z,15.83
2018-10-18T12:54:31.497Z,15.00
2018-10-18T12:57:01.667Z,14.87
2018-10-18T12:59:31.748Z,15.73
2018-10-18T13:02:01.896Z,15.20
2018-10-18T13:04:32.093Z,14.93
2018-10-18T13:07:03.079Z,14.50
2018-10-18T13:09:33.268Z,15.10
2018-10-18T13:12:03.297Z,13.90
2018-10-18T13:14:33.468Z,13.40
2018-10-18T13:17:03.690Z,14.10
2018-10-18T13:19:33.748Z,13.70
2018-10-18T13:22:03.984Z,14.07
2018-10-18T13:24:34.092Z,13.73
2018-10-18T13:27:04.715Z,14.30
2018-10-18T13:29:34.892Z,14.17
2018-10-18T13:32:05.264Z,14.27
2018-10-18T13:34:35.288Z,14.33
2018-10-18T13:37:05.610Z,13.47
2018-10-18T13:39:35.585Z,14.03
2018-10-18T13:42:06.409Z,14.03
2018-10-18T13:44:36.461Z,13.77
2018-10-18T13:47:06.477Z,14.50
2018-10-18T13:49:36.573Z,15.40
2018-10-18T13:52:06.605Z,13.37
2018-10-18T13:54:36.627Z,13.00
2018-10-18T13:57:07.712Z,14.53
2018-10-18T13:59:49.482Z,16.47
2018-10-18T14:02:19.590Z,14.93
2018-10-18T14:04:49.488Z,15.10
2018-10-18T14:07:19.589Z,14.53
2018-10-18T14:09:49.624Z,15.60
2018-10-18T14:12:23.650Z,16.30
2018-10-18T14:14:53.745Z,15.63
2018-10-18T14:17:24.014Z,16.13
2018-10-18T14:19:53.883Z,15.27
2018-10-18T14:22:23.893Z,17.27
2018-10-18T14:24:53.931Z,18.00
2018-10-18T14:27:24.032Z,17.10
2018-10-18T14:29:54.189Z,16.40
2018-10-18T14:32:24.207Z,16.03
2018-10-18T14:34:54.240Z,18.93
2018-10-18T14:37:24.200Z,16.20
2018-10-18T14:39:54.208Z,16.73
2018-10-18T14:42:24.241Z,18.00
2018-10-18T14:44:55.273Z,15.90
2018-10-18T14:47:25.868Z,16.23
2018-10-18T14:49:55.941Z,15.93
2018-10-18T14:52:25.916Z,15.70
2018-10-18T14:54:55.946Z,15.83
2018-10-18T14:57:26.031Z,16.77
2018-10-18T14:59:55.986Z,16.43
2018-10-18T15:02:26.010Z,15.07
2018-10-18T15:04:56.122Z,15.97
2018-10-18T15:07:26.152Z,16.60
2018-10-18T15:09:56.124Z,15.57
2018-10-18T15:12:26.256Z,14.83
2018-10-18T15:14:56.270Z,15.83
2018-10-18T15:17:26.226Z,15.97
2018-10-18T15:19:56.271Z,16.27
2018-10-18T15:22:26.589Z,15.93
2018-10-18T15:24:56.655Z,14.93
2018-10-18T15:27:26.858Z,15.30
2018-10-18T15:29:56.728Z,15.40
2018-10-18T15:32:26.868Z,16.03
2018-10-18T15:34:56.879Z,15.60
2018-10-18T15:37:26.952Z,14.40
2018-10-18T15:39:56.945Z,14.70
2018-10-18T15:42:27.049Z,14.40
2018-10-18T15:44:57.223Z,14.60
2018-10-18T15:47:27.324Z,13.23
2018-10-18T15:49:57.441Z,14.23
2018-10-18T15:52:27.497Z,13.60
2018-10-18T15:54:57.548Z,13.03
2018-10-18T15:57:27.643Z,14.30
2018-10-18T15:59:57.763Z,13.17
2018-10-18T16:02:27.737Z,12.57
2018-10-18T16:04:57.697Z,12.47
2018-10-18T16:07:27.829Z,12.40
2018-10-18T16:09:57.830Z,13.60
2018-10-18T16:12:27.855Z,13.80
2018-10-18T16:14:57.947Z,15.50
2018-10-18T16:17:28.128Z,12.63
2018-10-18T16:19:58.185Z,12.87
2018-10-18T16:22:28.175Z,12.90
2018-10-18T16:24:58.258Z,13.20
2018-10-18T16:27:28.621Z,13.47
2018-10-18T16:29:58.721Z,13.53
2018-10-18T16:32:29.186Z,13.13
2018-10-18T16:34:59.334Z,13.00
2018-10-18T16:37:29.404Z,13.50
2018-10-18T16:39:59.836Z,11.67
2018-10-18T16:42:29.948Z,13.63
2018-10-18T16:45:00.465Z,13.47
2018-10-18T16:47:30.944Z,13.00
2018-10-18T16:50:01.295Z,11.83
2018-10-18T16:52:31.265Z,12.03
2018-10-18T16:55:01.211Z,11.83
2018-10-18T16:57:31.269Z,12.97
2018-10-18T17:00:01.475Z,12.13
2018-10-18T17:02:31.464Z,12.03
2018-10-18T17:05:01.477Z,12.50
2018-10-18T17:07:31.654Z,11.63
2018-10-18T17:10:01.820Z,13.50
2018-10-18T17:12:31.854Z,12.90
2018-10-18T17:15:01.818Z,11.93
2018-10-18T17:17:31.843Z,13.10
2018-10-18T17:20:02.328Z,12.03
2018-10-18T17:22:32.829Z,12.53
2018-10-18T17:25:07.400Z,13.63
2018-10-18T17:27:40.132Z,12.80
2018-10-18T17:30:12.551Z,12.30
2018-10-18T17:32:42.877Z,12.97
2018-10-18T17:35:12.828Z,12.43
2018-10-18T17:37:42.940Z,12.47
2018-10-18T17:40:13.026Z,13.07
2018-10-18T17:42:42.957Z,12.40
2018-10-18T17:45:13.317Z,13.43
2018-10-18T17:47:43.543Z,13.80
2018-10-18T17:50:13.772Z,13.63
2018-10-18T17:52:45.782Z,13.67
2018-10-18T17:55:17.136Z,13.20
2018-10-18T17:57:47.246Z,13.10
2018-10-18T18:00:17.632Z,13.40
2018-10-18T18:02:47.778Z,13.20
2018-10-18T18:05:17.932Z,14.20
2018-10-18T18:07:47.994Z,14.90
2018-10-18T18:10:21.063Z,14.40
2018-10-18T18:12:52.664Z,15.03
2018-10-18T18:15:23.581Z,15.03
2018-10-18T18:17:53.831Z,15.00
2018-10-18T18:20:23.924Z,14.63
2018-10-18T18:22:54.252Z,14.47
2018-10-18T18:25:24.410Z,15.33
2018-10-18T18:27:54.541Z,14.87
2018-10-18T18:30:24.579Z,15.30
2018-10-18T18:32:54.559Z,16.03
2018-10-18T18:35:24.651Z,16.00
2018-10-18T18:37:54.702Z,15.27
2018-10-18T18:40:24.667Z,15.87
2018-10-18T18:42:54.684Z,16.73
2018-10-18T18:45:25.999Z,15.87
2018-10-18T18:47:55.895Z,16.43
2018-10-18T18:50:26.083Z,16.97
2018-10-18T18:53:08.040Z,16.57
2018-10-18T18:55:58.607Z,16.83
2018-10-18T18:58:52.224Z,18.53
2018-10-18T19:01:26.489Z,17.23
2018-10-18T19:03:57.126Z,16.87
2018-10-18T19:06:27.121Z,17.17
2018-10-18T19:08:57.112Z,17.13
2018-10-18T19:11:27.152Z,17.93
2018-10-18T19:13:57.296Z,16.83
2018-10-18T19:16:27.546Z,18.20
2018-10-18T19:18:57.530Z,19.07
2018-10-18T19:21:27.606Z,18.97
2018-10-18T19:23:57.656Z,19.00
2018-10-18T19:26:27.662Z,20.60
2018-10-18T19:28:57.808Z,21.57
2018-10-18T19:31:27.823Z,20.63
2018-10-18T19:33:57.904Z,19.57
2018-10-18T19:36:28.027Z,19.93
2018-10-18T19:38:58.060Z,18.17
2018-10-18T19:41:28.019Z,18.30
2018-10-18T19:43:58.109Z,19.77
2018-10-18T19:46:28.111Z,19.20
2018-10-18T19:48:58.215Z,19.30
2018-10-18T19:51:28.156Z,19.23
2018-10-18T19:53:58.390Z,19.83
2018-10-18T19:56:28.418Z,20.20
2018-10-18T19:58:58.478Z,20.50
2018-10-18T20:01:28.601Z,19.07
2018-10-18T20:03:59.174Z,20.87
2018-10-18T20:06:29.201Z,18.90
2018-10-18T20:08:59.723Z,19.47
2018-10-18T20:11:29.678Z,20.93
2018-10-18T20:13:59.852Z,20.37
2018-10-18T20:16:30.212Z,20.70
2018-10-18T20:19:00.323Z,20.47
2018-10-18T20:21:31.294Z,20.43
2018-10-18T20:24:01.398Z,21.07
2018-10-18T20:26:31.641Z,20.73
2018-10-18T20:29:01.757Z,20.97
2018-10-18T20:31:31.861Z,23.27
2018-10-18T20:34:02.261Z,21.13
2018-10-18T20:36:32.301Z,22.67
2018-10-18T20:39:02.445Z,21.43
2018-10-18T20:41:32.434Z,23.40
2018-10-18T20:44:02.523Z,22.57
2018-10-18T20:46:32.614Z,23.37
2018-10-18T20:49:02.564Z,23.43
2018-10-18T20:51:32.989Z,24.03
2018-10-18T20:54:03.876Z,23.63
2018-10-18T20:56:34.060Z,23.50
2018-10-18T20:59:04.316Z,24.93
2018-10-18T21:01:39.509Z,25.07
2018-10-18T21:04:16.382Z,26.67
2018-10-18T21:06:51.093Z,24.47
2018-10-18T21:09:24.427Z,24.23
2018-10-18T21:11:57.748Z,24.17
2018-10-18T21:14:28.990Z,23.63
2018-10-18T21:16:59.121Z,23.70
2018-10-18T21:19:29.472Z,25.63
2018-10-18T21:21:59.728Z,26.00
2018-10-18T21:24:29.750Z,24.83
2018-10-18T21:27:00.578Z,25.47
2018-10-18T21:29:30.708Z,26.50
2018-10-18T21:32:00.719Z,27.13
2018-10-18T21:34:30.803Z,26.57
2018-10-18T21:37:01.497Z,26.23
2018-10-18T21:39:35.728Z,27.50
2018-10-18T21:42:06.043Z,27.17
2018-10-18T21:44:37.370Z,27.43
2018-10-18T21:47:10.425Z,27.80
2018-10-18T21:49:44.094Z,27.57
2018-10-18T21:52:14.587Z,29.23
2018-10-18T21:54:44.657Z,28.20
2018-10-18T21:57:14.862Z,27.67
2018-10-18T21:59:44.717Z,30.07
2018-10-18T22:02:14.833Z,28.77
2018-10-18T22:04:44.869Z,29.60
2018-10-18T22:07:14.967Z,28.37
2018-10-18T22:09:45.010Z,29.00
2018-10-18T22:12:15.545Z,29.70
2018-10-18T22:14:45.630Z,30.50
2018-10-18T22:17:15.750Z,28.77
2018-10-18T22:19:45.685Z,29.73
2018-10-18T22:22:15.717Z,30.20
2018-10-18T22:24:45.692Z,31.07
2018-10-18T22:27:15.777Z,29.27
2018-10-18T22:29:46.010Z,29.13
2018-10-18T22:32:16.100Z,30.30
2018-10-18T22:34:46.292Z,28.63
2018-10-18T22:37:16.406Z,29.27
2018-10-18T22:39:46.399Z,30.33
2018-10-18T22:42:16.512Z,28.60
2018-10-18T22:44:46.495Z,30.63
2018-10-18T22:47:16.502Z,28.60
2018-10-18T22:49:46.544Z,28.63
2018-10-18T22:52:16.536Z,30.87
2018-10-18T22:54:46.459Z,30.50
2018-10-18T22:57:16.618Z,29.83
2018-10-18T22:59:46.506Z,28.73
2018-10-18T23:02:16.558Z,30.83
2018-10-18T23:04:46.878Z,30.73
2018-10-18T23:07:16.861Z,31.33
2018-10-18T23:09:46.841Z,30.90
2018-10-18T23:12:16.990Z,30.13
2018-10-18T23:14:47.018Z,31.23
2018-10-18T23:17:17.319Z,31.80
2018-10-18T23:19:47.381Z,31.60
2018-10-18T23:22:17.377Z,32.40
2018-10-18T23:24:47.392Z,33.77
2018-10-18T23:27:16.567Z,32.23
2018-10-18T23:29:46.499Z,33.13
2018-10-18T23:32:16.517Z,33.07
2018-10-18T23:34:46.503Z,34.23
2018-10-18T23:37:16.483Z,33.67
2018-10-18T23:39:46.467Z,33.87
2018-10-18T23:42:16.608Z,33.67
2018-10-18T23:44:46.939Z,35.40
2018-10-18T23:47:16.936Z,33.70
2018-10-18T23:49:46.854Z,33.90
2018-10-18T23:52:16.840Z,34.27
2018-10-18T23:54:46.832Z,35.23
2018-10-18T23:57:16.980Z,34.47
2018-10-18T23:59:46.896Z,35.00
